Airfield :
LOGIN :

Register | Disclaimer

   EN    FR    IT 

 










Legend :    VFR   Marginal VFR   IFR   Intensive IFR   Very Intensive IFR
Visi :
Ceiling :
>= 8 km
>= 3000ft
5 to 8 km
1000 to 3000 ft
1500m to 5 km
500 to 1000 ft
800 to 1500m
200 to 500 ft
< 800m
< 200 ft
Symbols :   Thunderstorms  Fog  Heavy snow  Heavy precipitations  Wind > 20 kt
SIGMETs :     Misc.  Thunderstorms  Icing  Turbulence  Mountain Waves  Volcanic Ashes







- Airport Elevation : 1516 ft
- IATA code : AGB


EDMA - Augsburg

CURRENT METAR :
  • 182150Z AUTO 32003KT 9999 // NCD 14/12 Q1024

EXPIRED METARs :
  • 182120Z AUTO 00000KT 9999 // BKN058/// 14/12 Q1024
  • 182050Z AUTO 00000KT 9999 // SCT059/// 15/13 Q1024
  • 182020Z AUTO 08003KT 9999 // BKN057/// 16/13 Q1023
  • 181950Z AUTO 08002KT 9999 // BKN056/// 16/13 Q1023
  • 181920Z AUTO 02001KT 9999 // SCT058/// 17/14 Q1023

TAF TAF EDMA
Valid from the 18 at 18:00 until the 19 at 03:00 UTC


181700Z 1818/1903 30005KT 9999 SCT045
BECMG 1818/1820 VRB02KT
No reported NOTAMs for that airfield.



MET'MAP, your aeronautical weather chart ! - Copyright ORBIFLY December 2007 - Disclaimer

ORBIFLY MET'MAP TEAM :

Programming & Development : Alexandra Zaïnal
Concept & Development : Baudouin d'Aumeries
Co-Development & Prog : Marc-Olivier Méhu
Technical & hardware support : Manuel Goepfert

Contact : metmap@orbifly.com




SOURCES & CREDITS :

   NOAA